sensor_id;sensor_type;location;lat;lon;timestamp;P1;durP1;ratioP1;P2;durP2;ratioP2
46889;SDS011;32625;51.080;16.970;2023-09-19T00:00:44;4.78;;;2.20;;
46889;SDS011;32625;51.080;16.970;2023-09-19T00:03:14;4.82;;;2.50;;
46889;SDS011;32625;51.080;16.970;2023-09-19T00:05:41;6.18;;;2.38;;
46889;SDS011;32625;51.080;16.970;2023-09-19T00:08:13;6.50;;;3.05;;
46889;SDS011;32625;51.080;16.970;2023-09-19T00:10:40;5.20;;;2.40;;
46889;SDS011;32625;51.080;16.970;2023-09-19T00:13:09;3.25;;;2.30;;
46889;SDS011;32625;51.080;16.970;2023-09-19T00:15:45;7.70;;;2.20;;
46889;SDS011;32625;51.080;16.970;2023-09-19T00:18:18;7.82;;;2.60;;
46889;SDS011;32625;51.080;16.970;2023-09-19T00:20:47;7.10;;;2.47;;
46889;SDS011;32625;51.080;16.970;2023-09-19T00:23:16;7.32;;;2.20;;
46889;SDS011;32625;51.080;16.970;2023-09-19T00:25:43;3.45;;;1.90;;
46889;SDS011;32625;51.080;16.970;2023-09-19T00:28:11;6.30;;;2.70;;
46889;SDS011;32625;51.080;16.970;2023-09-19T00:30:39;3.67;;;2.20;;
46889;SDS011;32625;51.080;16.970;2023-09-19T00:33:10;7.03;;;1.92;;
46889;SDS011;32625;51.080;16.970;2023-09-19T00:35:46;7.13;;;2.22;;
46889;SDS011;32625;51.080;16.970;2023-09-19T00:38:17;5.20;;;2.58;;
46889;SDS011;32625;51.080;16.970;2023-09-19T00:40:51;4.85;;;1.63;;
46889;SDS011;32625;51.080;16.970;2023-09-19T00:43:18;6.13;;;2.42;;
46889;SDS011;32625;51.080;16.970;2023-09-19T00:45:46;4.25;;;2.25;;
46889;SDS011;32625;51.080;16.970;2023-09-19T00:48:15;4.25;;;1.67;;
46889;SDS011;32625;51.080;16.970;2023-09-19T00:50:43;4.80;;;2.30;;
46889;SDS011;32625;51.080;16.970;2023-09-19T00:53:15;5.63;;;1.88;;
46889;SDS011;32625;51.080;16.970;2023-09-19T00:55:47;5.75;;;2.08;;
46889;SDS011;32625;51.080;16.970;2023-09-19T00:58:16;6.05;;;2.15;;
46889;SDS011;32625;51.080;16.970;2023-09-19T01:00:45;2.63;;;2.15;;
46889;SDS011;32625;51.080;16.970;2023-09-19T01:03:14;6.45;;;2.53;;
46889;SDS011;32625;51.080;16.970;2023-09-19T01:05:41;3.50;;;1.85;;
46889;SDS011;32625;51.080;16.970;2023-09-19T01:08:09;5.85;;;2.15;;
46889;SDS011;32625;51.080;16.970;2023-09-19T01:10:39;8.18;;;2.20;;
46889;SDS011;32625;51.080;16.970;2023-09-19T01:16:10;9.35;;;2.15;;
46889;SDS011;32625;51.080;16.970;2023-09-19T01:18:57;5.38;;;2.20;;
46889;SDS011;32625;51.080;16.970;2023-09-19T01:29:44;4.43;;;2.28;;
46889;SDS011;32625;51.080;16.970;2023-09-19T01:32:18;7.78;;;2.55;;
46889;SDS011;32625;51.080;16.970;2023-09-19T01:34:51;11.50;;;2.30;;
46889;SDS011;32625;51.080;16.970;2023-09-19T01:37:30;6.78;;;2.92;;
46889;SDS011;32625;51.080;16.970;2023-09-19T01:40:07;4.72;;;2.08;;
46889;SDS011;32625;51.080;16.970;2023-09-19T01:50:55;4.97;;;2.33;;
46889;SDS011;32625;51.080;16.970;2023-09-19T01:53:41;3.80;;;2.10;;
46889;SDS011;32625;51.080;16.970;2023-09-19T01:56:34;7.97;;;2.67;;
46889;SDS011;32625;51.080;16.970;2023-09-19T01:59:07;4.65;;;2.75;;
46889;SDS011;32625;51.080;16.970;2023-09-19T02:01:39;5.95;;;2.47;;
46889;SDS011;32625;51.080;16.970;2023-09-19T02:04:07;5.88;;;2.63;;
46889;SDS011;32625;51.080;16.970;2023-09-19T02:06:34;11.38;;;3.03;;
46889;SDS011;32625;51.080;16.970;2023-09-19T02:09:01;5.88;;;2.40;;
46889;SDS011;32625;51.080;16.970;2023-09-19T02:11:30;4.43;;;2.45;;
46889;SDS011;32625;51.080;16.970;2023-09-19T02:13:57;6.13;;;2.85;;
46889;SDS011;32625;51.080;16.970;2023-09-19T02:16:25;9.63;;;2.60;;
46889;SDS011;32625;51.080;16.970;2023-09-19T02:18:52;5.03;;;2.50;;
46889;SDS011;32625;51.080;16.970;2023-09-19T02:21:19;6.90;;;3.00;;
46889;SDS011;32625;51.080;16.970;2023-09-19T02:23:48;4.78;;;2.35;;
46889;SDS011;32625;51.080;16.970;2023-09-19T02:26:15;4.63;;;2.25;;
46889;SDS011;32625;51.080;16.970;2023-09-19T02:28:42;3.65;;;2.38;;
46889;SDS011;32625;51.080;16.970;2023-09-19T02:31:09;4.10;;;2.97;;
46889;SDS011;32625;51.080;16.970;2023-09-19T02:33:37;9.60;;;2.90;;
46889;SDS011;32625;51.080;16.970;2023-09-19T02:36:05;4.32;;;2.30;;
46889;SDS011;32625;51.080;16.970;2023-09-19T02:38:32;6.53;;;2.40;;
46889;SDS011;32625;51.080;16.970;2023-09-19T02:40:59;5.68;;;3.10;;
46889;SDS011;32625;51.080;16.970;2023-09-19T02:43:27;5.57;;;2.53;;
46889;SDS011;32625;51.080;16.970;2023-09-19T02:45:54;5.68;;;2.60;;
46889;SDS011;32625;51.080;16.970;2023-09-19T02:48:23;5.95;;;2.75;;
46889;SDS011;32625;51.080;16.970;2023-09-19T02:50:52;5.45;;;2.60;;
46889;SDS011;32625;51.080;16.970;2023-09-19T02:53:19;7.35;;;2.78;;
46889;SDS011;32625;51.080;16.970;2023-09-19T02:55:49;5.85;;;2.50;;
46889;SDS011;32625;51.080;16.970;2023-09-19T02:58:17;4.88;;;2.50;;
46889;SDS011;32625;51.080;16.970;2023-09-19T03:00:45;7.07;;;2.08;;
46889;SDS011;32625;51.080;16.970;2023-09-19T03:03:16;6.75;;;2.67;;
46889;SDS011;32625;51.080;16.970;2023-09-19T03:05:44;6.78;;;2.38;;
46889;SDS011;32625;51.080;16.970;2023-09-19T03:08:16;3.50;;;2.42;;
46889;SDS011;32625;51.080;16.970;2023-09-19T03:10:46;7.35;;;2.50;;
46889;SDS011;32625;51.080;16.970;2023-09-19T03:13:15;4.47;;;2.90;;
46889;SDS011;32625;51.080;16.970;2023-09-19T03:15:42;4.85;;;2.63;;
46889;SDS011;32625;51.080;16.970;2023-09-19T03:18:21;5.90;;;3.00;;
46889;SDS011;32625;51.080;16.970;2023-09-19T03:20:53;5.55;;;2.78;;
46889;SDS011;32625;51.080;16.970;2023-09-19T03:23:27;5.45;;;2.67;;
46889;SDS011;32625;51.080;16.970;2023-09-19T03:25:55;4.85;;;2.45;;
46889;SDS011;32625;51.080;16.970;2023-09-19T03:28:23;7.43;;;2.90;;
46889;SDS011;32625;51.080;16.970;2023-09-19T03:30:57;4.95;;;3.10;;
46889;SDS011;32625;51.080;16.970;2023-09-19T03:33:27;6.75;;;2.55;;
46889;SDS011;32625;51.080;16.970;2023-09-19T03:35:54;7.07;;;3.10;;
46889;SDS011;32625;51.080;16.970;2023-09-19T03:38:21;7.70;;;3.05;;
46889;SDS011;32625;51.080;16.970;2023-09-19T03:40:48;6.35;;;3.10;;
46889;SDS011;32625;51.080;16.970;2023-09-19T03:43:15;11.57;;;3.60;;
46889;SDS011;32625;51.080;16.970;2023-09-19T03:45:43;6.85;;;3.25;;
46889;SDS011;32625;51.080;16.970;2023-09-19T03:48:11;8.45;;;3.15;;
46889;SDS011;32625;51.080;16.970;2023-09-19T03:50:39;6.60;;;3.45;;
46889;SDS011;32625;51.080;16.970;2023-09-19T03:53:06;8.68;;;3.45;;
46889;SDS011;32625;51.080;16.970;2023-09-19T03:55:34;8.30;;;3.53;;
46889;SDS011;32625;51.080;16.970;2023-09-19T03:58:05;10.15;;;3.08;;
46889;SDS011;32625;51.080;16.970;2023-09-19T04:00:32;7.93;;;3.13;;
46889;SDS011;32625;51.080;16.970;2023-09-19T04:03:04;9.32;;;3.25;;
46889;SDS011;32625;51.080;16.970;2023-09-19T04:05:33;11.52;;;3.00;;
46889;SDS011;32625;51.080;16.970;2023-09-19T04:08:00;7.57;;;2.70;;
46889;SDS011;32625;51.080;16.970;2023-09-19T04:10:27;8.25;;;3.20;;
46889;SDS011;32625;51.080;16.970;2023-09-19T04:12:55;6.35;;;3.58;;
46889;SDS011;32625;51.080;16.970;2023-09-19T04:15:23;4.65;;;2.90;;
46889;SDS011;32625;51.080;16.970;2023-09-19T04:17:53;6.60;;;3.22;;
46889;SDS011;32625;51.080;16.970;2023-09-19T04:20:20;4.03;;;2.80;;
46889;SDS011;32625;51.080;16.970;2023-09-19T04:22:49;4.32;;;2.60;;
46889;SDS011;32625;51.080;16.970;2023-09-19T04:25:16;6.75;;;3.13;;
46889;SDS011;32625;51.080;16.970;2023-09-19T04:27:45;9.85;;;2.90;;
46889;SDS011;32625;51.080;16.970;2023-09-19T04:30:12;8.50;;;3.05;;
46889;SDS011;32625;51.080;16.970;2023-09-19T04:32:41;6.65;;;2.63;;
46889;SDS011;32625;51.080;16.970;2023-09-19T04:35:08;7.57;;;2.90;;
46889;SDS011;32625;51.080;16.970;2023-09-19T04:37:40;5.13;;;2.78;;
46889;SDS011;32625;51.080;16.970;2023-09-19T04:40:08;5.55;;;2.55;;
46889;SDS011;32625;51.080;16.970;2023-09-19T04:42:40;5.60;;;2.85;;
46889;SDS011;32625;51.080;16.970;2023-09-19T04:45:08;6.88;;;3.90;;
46889;SDS011;32625;51.080;16.970;2023-09-19T04:47:37;8.75;;;3.00;;
46889;SDS011;32625;51.080;16.970;2023-09-19T04:50:07;5.15;;;3.45;;
46889;SDS011;32625;51.080;16.970;2023-09-19T04:52:39;5.95;;;3.33;;
46889;SDS011;32625;51.080;16.970;2023-09-19T04:55:09;6.78;;;2.92;;
46889;SDS011;32625;51.080;16.970;2023-09-19T04:57:44;8.18;;;2.92;;
46889;SDS011;32625;51.080;16.970;2023-09-19T05:00:12;7.22;;;3.17;;
46889;SDS011;32625;51.080;16.970;2023-09-19T05:02:43;8.70;;;3.65;;
46889;SDS011;32625;51.080;16.970;2023-09-19T05:05:10;4.25;;;2.67;;
46889;SDS011;32625;51.080;16.970;2023-09-19T05:07:41;5.47;;;3.17;;
46889;SDS011;32625;51.080;16.970;2023-09-19T05:10:09;5.10;;;2.67;;
46889;SDS011;32625;51.080;16.970;2023-09-19T05:12:36;4.95;;;3.00;;
46889;SDS011;32625;51.080;16.970;2023-09-19T05:15:06;7.13;;;3.08;;
46889;SDS011;32625;51.080;16.970;2023-09-19T05:17:34;9.32;;;3.15;;
46889;SDS011;32625;51.080;16.970;2023-09-19T05:20:02;5.50;;;2.65;;
46889;SDS011;32625;51.080;16.970;2023-09-19T05:22:32;6.32;;;3.08;;
46889;SDS011;32625;51.080;16.970;2023-09-19T05:25:00;4.28;;;2.75;;
46889;SDS011;32625;51.080;16.970;2023-09-19T05:27:30;9.63;;;2.60;;
46889;SDS011;32625;51.080;16.970;2023-09-19T05:29:58;3.80;;;2.60;;
46889;SDS011;32625;51.080;16.970;2023-09-19T05:32:24;8.60;;;2.88;;
46889;SDS011;32625;51.080;16.970;2023-09-19T05:34:52;6.90;;;3.22;;
46889;SDS011;32625;51.080;16.970;2023-09-19T05:37:22;7.60;;;3.05;;
46889;SDS011;32625;51.080;16.970;2023-09-19T05:39:53;5.95;;;3.08;;
46889;SDS011;32625;51.080;16.970;2023-09-19T05:42:23;7.30;;;3.10;;
46889;SDS011;32625;51.080;16.970;2023-09-19T05:44:51;6.28;;;3.05;;
46889;SDS011;32625;51.080;16.970;2023-09-19T05:47:18;7.50;;;3.33;;
46889;SDS011;32625;51.080;16.970;2023-09-19T05:49:45;7.05;;;2.97;;
46889;SDS011;32625;51.080;16.970;2023-09-19T05:52:13;6.88;;;3.47;;
46889;SDS011;32625;51.080;16.970;2023-09-19T05:54:40;7.80;;;3.30;;
46889;SDS011;32625;51.080;16.970;2023-09-19T05:57:08;9.48;;;3.55;;
46889;SDS011;32625;51.080;16.970;2023-09-19T05:59:38;6.90;;;3.25;;
46889;SDS011;32625;51.080;16.970;2023-09-19T06:02:06;9.55;;;3.60;;
46889;SDS011;32625;51.080;16.970;2023-09-19T06:04:33;12.60;;;3.65;;
46889;SDS011;32625;51.080;16.970;2023-09-19T06:07:00;10.85;;;3.20;;
46889;SDS011;32625;51.080;16.970;2023-09-19T06:09:28;12.55;;;3.50;;
46889;SDS011;32625;51.080;16.970;2023-09-19T06:11:55;10.85;;;3.78;;
46889;SDS011;32625;51.080;16.970;2023-09-19T06:14:23;11.90;;;3.58;;
46889;SDS011;32625;51.080;16.970;2023-09-19T06:16:50;5.95;;;3.60;;
46889;SDS011;32625;51.080;16.970;2023-09-19T06:19:20;11.02;;;3.15;;
46889;SDS011;32625;51.080;16.970;2023-09-19T06:21:49;9.25;;;3.45;;
46889;SDS011;32625;51.080;16.970;2023-09-19T06:24:16;6.40;;;3.15;;
46889;SDS011;32625;51.080;16.970;2023-09-19T06:26:43;7.35;;;3.35;;
46889;SDS011;32625;51.080;16.970;2023-09-19T06:29:10;8.30;;;3.00;;
46889;SDS011;32625;51.080;16.970;2023-09-19T06:31:38;8.20;;;3.03;;
46889;SDS011;32625;51.080;16.970;2023-09-19T06:34:06;9.93;;;3.15;;
46889;SDS011;32625;51.080;16.970;2023-09-19T06:36:33;11.00;;;3.80;;
46889;SDS011;32625;51.080;16.970;2023-09-19T06:39:00;6.30;;;2.70;;
46889;SDS011;32625;51.080;16.970;2023-09-19T06:41:27;6.70;;;2.75;;
46889;SDS011;32625;51.080;16.970;2023-09-19T06:43:54;5.72;;;2.88;;
46889;SDS011;32625;51.080;16.970;2023-09-19T06:46:21;6.22;;;2.53;;
46889;SDS011;32625;51.080;16.970;2023-09-19T06:48:48;5.85;;;2.80;;
46889;SDS011;32625;51.080;16.970;2023-09-19T06:51:15;5.53;;;2.53;;
46889;SDS011;32625;51.080;16.970;2023-09-19T06:53:42;5.47;;;2.53;;
46889;SDS011;32625;51.080;16.970;2023-09-19T06:56:09;9.00;;;3.05;;
46889;SDS011;32625;51.080;16.970;2023-09-19T06:58:36;9.45;;;3.55;;
46889;SDS011;32625;51.080;16.970;2023-09-19T07:01:04;11.52;;;3.40;;
46889;SDS011;32625;51.080;16.970;2023-09-19T07:03:31;6.95;;;2.90;;
46889;SDS011;32625;51.080;16.970;2023-09-19T07:06:00;8.93;;;3.13;;
46889;SDS011;32625;51.080;16.970;2023-09-19T07:08:27;6.05;;;2.67;;
46889;SDS011;32625;51.080;16.970;2023-09-19T07:10:55;6.35;;;2.65;;
46889;SDS011;32625;51.080;16.970;2023-09-19T07:13:23;7.38;;;3.05;;
46889;SDS011;32625;51.080;16.970;2023-09-19T07:15:51;4.10;;;2.30;;
46889;SDS011;32625;51.080;16.970;2023-09-19T07:18:18;6.90;;;2.47;;
46889;SDS011;32625;51.080;16.970;2023-09-19T07:20:46;5.93;;;2.30;;
46889;SDS011;32625;51.080;16.970;2023-09-19T07:23:20;6.28;;;2.40;;
46889;SDS011;32625;51.080;16.970;2023-09-19T07:25:49;12.95;;;2.97;;
46889;SDS011;32625;51.080;16.970;2023-09-19T07:28:16;3.67;;;2.13;;
46889;SDS011;32625;51.080;16.970;2023-09-19T07:30:44;5.03;;;2.03;;
46889;SDS011;32625;51.080;16.970;2023-09-19T07:33:11;3.40;;;2.10;;
46889;SDS011;32625;51.080;16.970;2023-09-19T07:35:38;4.55;;;2.95;;
46889;SDS011;32625;51.080;16.970;2023-09-19T07:38:07;3.42;;;2.33;;
46889;SDS011;32625;51.080;16.970;2023-09-19T07:40:34;2.47;;;1.95;;
46889;SDS011;32625;51.080;16.970;2023-09-19T07:43:01;8.13;;;2.90;;
46889;SDS011;32625;51.080;16.970;2023-09-19T07:45:28;5.32;;;2.50;;
46889;SDS011;32625;51.080;16.970;2023-09-19T07:47:56;6.00;;;2.10;;
46889;SDS011;32625;51.080;16.970;2023-09-19T07:50:23;5.15;;;2.60;;
46889;SDS011;32625;51.080;16.970;2023-09-19T07:52:52;5.30;;;2.10;;
46889;SDS011;32625;51.080;16.970;2023-09-19T07:55:20;4.57;;;2.85;;
46889;SDS011;32625;51.080;16.970;2023-09-19T07:57:50;5.25;;;2.28;;
46889;SDS011;32625;51.080;16.970;2023-09-19T08:00:18;10.02;;;2.10;;
46889;SDS011;32625;51.080;16.970;2023-09-19T08:02:45;9.35;;;2.13;;
46889;SDS011;32625;51.080;16.970;2023-09-19T08:05:16;4.53;;;2.13;;
46889;SDS011;32625;51.080;16.970;2023-09-19T08:07:44;2.97;;;1.95;;
46889;SDS011;32625;51.080;16.970;2023-09-19T08:10:15;2.80;;;2.03;;
46889;SDS011;32625;51.080;16.970;2023-09-19T08:12:45;7.40;;;2.20;;
46889;SDS011;32625;51.080;16.970;2023-09-19T08:15:14;4.80;;;2.22;;
46889;SDS011;32625;51.080;16.970;2023-09-19T08:17:42;5.07;;;2.20;;
46889;SDS011;32625;51.080;16.970;2023-09-19T08:20:09;3.80;;;2.28;;
46889;SDS011;32625;51.080;16.970;2023-09-19T08:22:46;3.85;;;2.67;;
46889;SDS011;32625;51.080;16.970;2023-09-19T08:25:21;8.85;;;3.10;;
46889;SDS011;32625;51.080;16.970;2023-09-19T08:27:49;2.53;;;1.80;;
46889;SDS011;32625;51.080;16.970;2023-09-19T08:30:17;8.18;;;2.22;;
46889;SDS011;32625;51.080;16.970;2023-09-19T08:32:50;3.13;;;1.80;;
46889;SDS011;32625;51.080;16.970;2023-09-19T08:35:17;4.70;;;2.35;;
46889;SDS011;32625;51.080;16.970;2023-09-19T08:37:46;4.85;;;2.00;;
46889;SDS011;32625;51.080;16.970;2023-09-19T08:40:13;2.70;;;1.90;;
46889;SDS011;32625;51.080;16.970;2023-09-19T08:42:49;3.95;;;2.30;;
46889;SDS011;32625;51.080;16.970;2023-09-19T08:45:21;5.93;;;2.42;;
46889;SDS011;32625;51.080;16.970;2023-09-19T08:47:53;3.28;;;2.22;;
46889;SDS011;32625;51.080;16.970;2023-09-19T08:50:31;5.35;;;2.47;;
46889;SDS011;32625;51.080;16.970;2023-09-19T08:53:05;5.18;;;2.30;;
46889;SDS011;32625;51.080;16.970;2023-09-19T08:55:38;3.42;;;2.08;;
46889;SDS011;32625;51.080;16.970;2023-09-19T08:58:10;5.28;;;2.35;;
46889;SDS011;32625;51.080;16.970;2023-09-19T09:00:39;3.25;;;2.00;;
46889;SDS011;32625;51.080;16.970;2023-09-19T09:03:10;4.05;;;1.75;;
46889;SDS011;32625;51.080;16.970;2023-09-19T09:05:39;4.82;;;2.40;;
46889;SDS011;32625;51.080;16.970;2023-09-19T09:08:10;4.80;;;2.30;;
46889;SDS011;32625;51.080;16.970;2023-09-19T09:10:37;2.67;;;2.00;;
46889;SDS011;32625;51.080;16.970;2023-09-19T09:13:07;6.30;;;2.13;;
46889;SDS011;32625;51.080;16.970;2023-09-19T09:15:35;4.25;;;2.35;;
46889;SDS011;32625;51.080;16.970;2023-09-19T09:18:03;6.53;;;2.00;;
46889;SDS011;32625;51.080;16.970;2023-09-19T09:20:31;3.55;;;2.40;;
46889;SDS011;32625;51.080;16.970;2023-09-19T09:22:58;5.35;;;2.63;;
46889;SDS011;32625;51.080;16.970;2023-09-19T09:28:13;5.95;;;2.40;;
46889;SDS011;32625;51.080;16.970;2023-09-19T09:30:46;3.58;;;2.10;;
46889;SDS011;32625;51.080;16.970;2023-09-19T09:33:14;3.33;;;2.13;;
46889;SDS011;32625;51.080;16.970;2023-09-19T09:38:19;7.68;;;2.17;;
46889;SDS011;32625;51.080;16.970;2023-09-19T09:40:47;3.78;;;2.03;;
46889;SDS011;32625;51.080;16.970;2023-09-19T09:43:37;3.45;;;2.17;;
46889;SDS011;32625;51.080;16.970;2023-09-19T09:48:58;4.22;;;2.35;;
46889;SDS011;32625;51.080;16.970;2023-09-19T09:51:49;3.75;;;2.08;;
46889;SDS011;32625;51.080;16.970;2023-09-19T09:54:27;4.55;;;2.03;;
46889;SDS011;32625;51.080;16.970;2023-09-19T09:57:09;3.17;;;1.73;;
46889;SDS011;32625;51.080;16.970;2023-09-19T09:59:44;3.22;;;2.28;;
46889;SDS011;32625;51.080;16.970;2023-09-19T10:02:17;3.97;;;2.17;;
46889;SDS011;32625;51.080;16.970;2023-09-19T10:04:52;3.95;;;1.88;;
46889;SDS011;32625;51.080;16.970;2023-09-19T10:07:33;2.75;;;1.88;;
46889;SDS011;32625;51.080;16.970;2023-09-19T10:10:08;2.83;;;1.70;;
46889;SDS011;32625;51.080;16.970;2023-09-19T10:12:48;3.38;;;2.08;;
46889;SDS011;32625;51.080;16.970;2023-09-19T10:15:16;4.88;;;1.70;;
46889;SDS011;32625;51.080;16.970;2023-09-19T10:17:47;13.43;;;2.30;;
46889;SDS011;32625;51.080;16.970;2023-09-19T10:20:15;5.10;;;2.20;;
46889;SDS011;32625;51.080;16.970;2023-09-19T10:22:59;4.63;;;1.90;;
46889;SDS011;32625;51.080;16.970;2023-09-19T10:25:27;3.40;;;2.38;;
46889;SDS011;32625;51.080;16.970;2023-09-19T10:27:57;2.60;;;1.73;;
46889;SDS011;32625;51.080;16.970;2023-09-19T10:33:01;4.75;;;2.05;;
46889;SDS011;32625;51.080;16.970;2023-09-19T10:35:29;4.38;;;1.85;;
46889;SDS011;32625;51.080;16.970;2023-09-19T10:38:01;3.40;;;1.67;;
46889;SDS011;32625;51.080;16.970;2023-09-19T10:40:30;5.78;;;1.42;;
46889;SDS011;32625;51.080;16.970;2023-09-19T10:43:03;5.05;;;1.60;;
46889;SDS011;32625;51.080;16.970;2023-09-19T10:45:34;2.25;;;1.45;;
46889;SDS011;32625;51.080;16.970;2023-09-19T10:48:02;1.30;;;1.20;;
46889;SDS011;32625;51.080;16.970;2023-09-19T10:50:30;4.72;;;2.10;;
46889;SDS011;32625;51.080;16.970;2023-09-19T10:53:04;4.57;;;1.52;;
46889;SDS011;32625;51.080;16.970;2023-09-19T10:55:34;2.83;;;1.60;;
46889;SDS011;32625;51.080;16.970;2023-09-19T10:58:03;4.55;;;1.42;;
46889;SDS011;32625;51.080;16.970;2023-09-19T11:00:51;5.47;;;1.70;;
46889;SDS011;32625;51.080;16.970;2023-09-19T11:03:23;2.92;;;1.48;;
46889;SDS011;32625;51.080;16.970;2023-09-19T11:08:27;2.53;;;1.42;;
46889;SDS011;32625;51.080;16.970;2023-09-19T11:10:54;3.25;;;1.48;;
46889;SDS011;32625;51.080;16.970;2023-09-19T11:13:25;6.50;;;1.85;;
46889;SDS011;32625;51.080;16.970;2023-09-19T11:16:04;4.65;;;1.90;;
46889;SDS011;32625;51.080;16.970;2023-09-19T11:26:40;5.20;;;1.42;;
46889;SDS011;32625;51.080;16.970;2023-09-19T11:29:26;2.83;;;1.45;;
46889;SDS011;32625;51.080;16.970;2023-09-19T11:31:56;3.70;;;1.77;;
46889;SDS011;32625;51.080;16.970;2023-09-19T11:37:04;3.15;;;1.45;;
46889;SDS011;32625;51.080;16.970;2023-09-19T11:40:08;6.28;;;1.63;;
46889;SDS011;32625;51.080;16.970;2023-09-19T11:48:18;1.42;;;1.23;;
46889;SDS011;32625;51.080;16.970;2023-09-19T11:50:46;2.00;;;1.27;;
46889;SDS011;32625;51.080;16.970;2023-09-19T11:53:14;5.18;;;1.48;;
46889;SDS011;32625;51.080;16.970;2023-09-19T11:55:42;4.40;;;1.45;;
46889;SDS011;32625;51.080;16.970;2023-09-19T11:58:10;3.03;;;2.63;;
46889;SDS011;32625;51.080;16.970;2023-09-19T12:00:41;3.05;;;1.30;;
46889;SDS011;32625;51.080;16.970;2023-09-19T12:03:11;3.92;;;1.15;;
46889;SDS011;32625;51.080;16.970;2023-09-19T12:05:41;6.18;;;1.30;;
46889;SDS011;32625;51.080;16.970;2023-09-19T12:08:07;2.00;;;1.10;;
46889;SDS011;32625;51.080;16.970;2023-09-19T12:10:48;2.63;;;1.30;;
46889;SDS011;32625;51.080;16.970;2023-09-19T12:13:16;3.08;;;1.35;;
46889;SDS011;32625;51.080;16.970;2023-09-19T12:15:44;2.85;;;1.30;;
46889;SDS011;32625;51.080;16.970;2023-09-19T12:18:26;4.80;;;2.35;;
46889;SDS011;32625;51.080;16.970;2023-09-19T12:20:54;3.92;;;1.92;;
46889;SDS011;32625;51.080;16.970;2023-09-19T12:23:22;2.17;;;1.30;;
46889;SDS011;32625;51.080;16.970;2023-09-19T12:25:49;2.28;;;1.10;;
46889;SDS011;32625;51.080;16.970;2023-09-19T12:28:20;2.38;;;1.10;;
46889;SDS011;32625;51.080;16.970;2023-09-19T12:30:51;3.42;;;1.23;;
46889;SDS011;32625;51.080;16.970;2023-09-19T12:33:21;3.65;;;1.60;;
46889;SDS011;32625;51.080;16.970;2023-09-19T12:35:52;4.90;;;1.52;;
46889;SDS011;32625;51.080;16.970;2023-09-19T12:38:24;2.30;;;1.38;;
46889;SDS011;32625;51.080;16.970;2023-09-19T12:40:55;3.55;;;1.25;;
46889;SDS011;32625;51.080;16.970;2023-09-19T12:43:22;3.78;;;1.58;;
46889;SDS011;32625;51.080;16.970;2023-09-19T12:45:50;2.15;;;1.30;;
46889;SDS011;32625;51.080;16.970;2023-09-19T12:48:23;3.35;;;1.30;;
46889;SDS011;32625;51.080;16.970;2023-09-19T12:51:08;4.57;;;1.50;;
46889;SDS011;32625;51.080;16.970;2023-09-19T12:53:43;3.42;;;1.60;;
46889;SDS011;32625;51.080;16.970;2023-09-19T12:56:12;2.63;;;1.38;;
46889;SDS011;32625;51.080;16.970;2023-09-19T12:58:52;3.63;;;1.35;;
46889;SDS011;32625;51.080;16.970;2023-09-19T13:01:21;1.73;;;0.93;;
46889;SDS011;32625;51.080;16.970;2023-09-19T13:04:11;3.25;;;1.30;;
46889;SDS011;32625;51.080;16.970;2023-09-19T13:06:52;5.20;;;1.40;;
46889;SDS011;32625;51.080;16.970;2023-09-19T13:09:21;2.50;;;1.48;;
46889;SDS011;32625;51.080;16.970;2023-09-19T13:11:54;2.17;;;1.48;;
46889;SDS011;32625;51.080;16.970;2023-09-19T13:14:23;6.13;;;2.13;;
46889;SDS011;32625;51.080;16.970;2023-09-19T13:17:05;2.72;;;1.25;;
46889;SDS011;32625;51.080;16.970;2023-09-19T13:19:53;3.03;;;1.33;;
46889;SDS011;32625;51.080;16.970;2023-09-19T13:25:11;1.27;;;1.10;;
46889;SDS011;32625;51.080;16.970;2023-09-19T13:27:42;1.10;;;1.00;;
46889;SDS011;32625;51.080;16.970;2023-09-19T13:30:11;2.58;;;1.30;;
46889;SDS011;32625;51.080;16.970;2023-09-19T13:32:39;2.58;;;1.20;;
46889;SDS011;32625;51.080;16.970;2023-09-19T13:35:07;1.73;;;1.25;;
46889;SDS011;32625;51.080;16.970;2023-09-19T13:37:35;2.22;;;1.23;;
46889;SDS011;32625;51.080;16.970;2023-09-19T13:42:35;1.30;;;1.00;;
46889;SDS011;32625;51.080;16.970;2023-09-19T13:45:03;3.97;;;1.60;;
46889;SDS011;32625;51.080;16.970;2023-09-19T13:47:31;3.72;;;1.30;;
46889;SDS011;32625;51.080;16.970;2023-09-19T13:49:59;2.80;;;1.48;;
46889;SDS011;32625;51.080;16.970;2023-09-19T13:52:29;2.55;;;1.20;;
46889;SDS011;32625;51.080;16.970;2023-09-19T13:54:57;3.03;;;1.00;;
46889;SDS011;32625;51.080;16.970;2023-09-19T13:57:25;3.78;;;1.48;;
46889;SDS011;32625;51.080;16.970;2023-09-19T13:59:52;4.43;;;1.10;;
46889;SDS011;32625;51.080;16.970;2023-09-19T14:02:21;2.28;;;1.17;;
46889;SDS011;32625;51.080;16.970;2023-09-19T14:04:52;1.65;;;1.10;;
46889;SDS011;32625;51.080;16.970;2023-09-19T14:07:19;4.13;;;1.38;;
46889;SDS011;32625;51.080;16.970;2023-09-19T14:09:46;2.20;;;1.30;;
46889;SDS011;32625;51.080;16.970;2023-09-19T14:12:13;2.92;;;1.25;;
46889;SDS011;32625;51.080;16.970;2023-09-19T14:14:41;1.92;;;1.30;;
46889;SDS011;32625;51.080;16.970;2023-09-19T14:17:09;2.70;;;1.27;;
46889;SDS011;32625;51.080;16.970;2023-09-19T14:19:36;2.38;;;1.20;;
46889;SDS011;32625;51.080;16.970;2023-09-19T14:22:04;3.38;;;1.17;;
46889;SDS011;32625;51.080;16.970;2023-09-19T14:24:35;1.77;;;1.15;;
46889;SDS011;32625;51.080;16.970;2023-09-19T14:27:02;2.58;;;1.20;;
46889;SDS011;32625;51.080;16.970;2023-09-19T14:29:30;5.35;;;1.13;;
46889;SDS011;32625;51.080;16.970;2023-09-19T14:31:58;1.70;;;0.98;;
46889;SDS011;32625;51.080;16.970;2023-09-19T14:34:26;3.83;;;1.15;;
46889;SDS011;32625;51.080;16.970;2023-09-19T14:36:53;3.35;;;1.27;;
46889;SDS011;32625;51.080;16.970;2023-09-19T14:39:23;3.80;;;1.35;;
46889;SDS011;32625;51.080;16.970;2023-09-19T14:41:49;2.67;;;1.20;;
46889;SDS011;32625;51.080;16.970;2023-09-19T14:44:16;3.17;;;1.02;;
46889;SDS011;32625;51.080;16.970;2023-09-19T14:46:43;2.22;;;1.10;;
46889;SDS011;32625;51.080;16.970;2023-09-19T14:49:11;2.47;;;1.50;;
46889;SDS011;32625;51.080;16.970;2023-09-19T14:51:38;3.13;;;1.33;;
46889;SDS011;32625;51.080;16.970;2023-09-19T14:54:10;2.42;;;1.17;;
46889;SDS011;32625;51.080;16.970;2023-09-19T14:56:37;3.17;;;1.17;;
46889;SDS011;32625;51.080;16.970;2023-09-19T14:59:04;2.20;;;1.13;;
46889;SDS011;32625;51.080;16.970;2023-09-19T15:01:33;3.90;;;1.20;;
46889;SDS011;32625;51.080;16.970;2023-09-19T15:04:00;3.08;;;1.40;;
46889;SDS011;32625;51.080;16.970;2023-09-19T15:06:28;2.90;;;1.30;;
46889;SDS011;32625;51.080;16.970;2023-09-19T15:08:55;1.65;;;1.10;;
46889;SDS011;32625;51.080;16.970;2023-09-19T15:11:22;5.15;;;1.42;;
46889;SDS011;32625;51.080;16.970;2023-09-19T15:13:50;2.38;;;1.38;;
46889;SDS011;32625;51.080;16.970;2023-09-19T15:16:20;3.05;;;1.33;;
46889;SDS011;32625;51.080;16.970;2023-09-19T15:18:47;4.13;;;1.20;;
46889;SDS011;32625;51.080;16.970;2023-09-19T15:21:14;3.25;;;1.52;;
46889;SDS011;32625;51.080;16.970;2023-09-19T15:23:42;2.05;;;1.40;;
46889;SDS011;32625;51.080;16.970;2023-09-19T15:26:11;2.22;;;1.52;;
46889;SDS011;32625;51.080;16.970;2023-09-19T15:28:40;2.80;;;1.33;;
46889;SDS011;32625;51.080;16.970;2023-09-19T15:31:08;2.58;;;1.27;;
46889;SDS011;32625;51.080;16.970;2023-09-19T15:33:37;2.22;;;1.10;;
46889;SDS011;32625;51.080;16.970;2023-09-19T15:36:08;1.95;;;1.30;;
46889;SDS011;32625;51.080;16.970;2023-09-19T15:41:34;2.10;;;1.23;;
46889;SDS011;32625;51.080;16.970;2023-09-19T15:44:10;2.05;;;1.38;;
46889;SDS011;32625;51.080;16.970;2023-09-19T15:46:38;7.53;;;1.20;;